Time;durP1;ratioP1;P1;durP2;ratioP2;P2;SDS_P1;SDS_P2;PMS_P1;PMS_P2;Temp;Humidity;BMP_temperature;BMP_pressure;BME280_temperature;BME280_humidity;BME280_pressure;Samples;Min_cycle;Max_cycle;Signal;HPM_P1;HPM_P2
2023/03/06 00:00:30;;;;;;;12.45;5.32;;;;;;;;;;4951190;28;20246;-47
2023/03/06 00:02:57;;;;;;;15.87;6.13;;;;;;;;;;4961084;28;20050;-50
2023/03/06 00:05:25;;;;;;;13.00;5.55;;;;;;;;;;4943032;28;20042;-47
2023/03/06 00:07:53;;;;;;;12.23;5.07;;;;;;;;;;4948436;28;20050;-49
2023/03/06 00:10:22;;;;;;;12.30;5.28;;;;;;;;;;4953461;28;20050;-46
2023/03/06 00:12:52;;;;;;;13.02;4.95;;;;;;;;;;4926290;28;20069;-45
2023/03/06 00:15:29;;;;;;;12.50;5.17;;;;;;;;;;4425188;28;10000909;-45
2023/03/06 00:17:57;;;;;;;12.70;5.77;;;;;;;;;;4960696;28;20116;-48
2023/03/06 00:20:25;;;;;;;14.70;5.95;;;;;;;;;;4947841;28;20563;-45
2023/03/06 00:22:53;;;;;;;13.52;5.95;;;;;;;;;;4960100;28;20053;-46
2023/03/06 00:25:21;;;;;;;14.20;5.50;;;;;;;;;;4936773;28;20038;-47
2023/03/06 00:27:50;;;;;;;15.13;6.03;;;;;;;;;;4956728;28;20042;-44
2023/03/06 00:30:20;;;;;;;16.33;5.77;;;;;;;;;;4944915;28;20821;-44
2023/03/06 00:32:48;;;;;;;12.88;5.93;;;;;;;;;;4942991;28;20125;-44
2023/03/06 00:35:16;;;;;;;14.95;6.65;;;;;;;;;;4953408;28;20448;-45
2023/03/06 00:37:44;;;;;;;16.33;6.35;;;;;;;;;;4960427;28;20053;-47
2023/03/06 00:40:12;;;;;;;13.10;5.85;;;;;;;;;;4947414;28;20031;-45
2023/03/06 00:42:40;;;;;;;14.80;6.63;;;;;;;;;;4963482;28;20166;-46
2023/03/06 00:45:08;;;;;;;13.30;5.85;;;;;;;;;;4955804;28;20518;-44
2023/03/06 00:47:39;;;;;;;13.80;5.85;;;;;;;;;;4961383;28;20085;-45
2023/03/06 00:50:07;;;;;;;12.55;5.70;;;;;;;;;;4951155;28;20248;-45
2023/03/06 00:52:35;;;;;;;17.55;6.50;;;;;;;;;;4971400;28;20428;-44
2023/03/06 00:55:06;;;;;;;11.60;4.97;;;;;;;;;;4974530;28;20033;-45
2023/03/06 00:57:34;;;;;;;13.40;5.65;;;;;;;;;;4964226;28;20133;-44
2023/03/06 01:00:02;;;;;;;12.85;5.60;;;;;;;;;;4975020;28;20061;-48
2023/03/06 01:02:30;;;;;;;11.70;5.45;;;;;;;;;;4980341;28;20049;-45
2023/03/06 01:04:59;;;;;;;12.38;5.35;;;;;;;;;;4966476;28;20534;-46
2023/03/06 01:07:27;;;;;;;13.20;5.27;;;;;;;;;;4985201;28;20117;-44
2023/03/06 01:09:55;;;;;;;13.27;5.53;;;;;;;;;;4977240;28;20048;-46
2023/03/06 01:12:22;;;;;;;11.90;5.15;;;;;;;;;;4932923;28;20077;-47
2023/03/06 01:14:50;;;;;;;14.10;6.07;;;;;;;;;;4985697;28;20173;-49
2023/03/06 01:17:17;;;;;;;14.75;6.43;;;;;;;;;;4971290;28;20508;-46
2023/03/06 01:19:45;;;;;;;16.10;6.33;;;;;;;;;;4975990;28;20050;-44
2023/03/06 01:22:14;;;;;;;13.93;6.00;;;;;;;;;;4957808;28;21671;-45
2023/03/06 01:24:42;;;;;;;15.98;6.20;;;;;;;;;;4984608;28;20045;-46
2023/03/06 01:27:09;;;;;;;12.57;5.47;;;;;;;;;;4953330;28;20084;-47
2023/03/06 01:29:37;;;;;;;16.05;6.13;;;;;;;;;;4969104;28;20042;-45
2023/03/06 01:32:05;;;;;;;15.03;6.40;;;;;;;;;;4965289;28;20068;-47
2023/03/06 01:34:32;;;;;;;13.48;5.65;;;;;;;;;;5000476;28;20431;-48
2023/03/06 01:37:00;;;;;;;13.07;5.85;;;;;;;;;;4973348;28;20267;-44
2023/03/06 01:39:30;;;;;;;16.67;5.95;;;;;;;;;;4979910;28;20121;-45
2023/03/06 01:41:57;;;;;;;11.95;5.22;;;;;;;;;;4971890;28;20485;-45
2023/03/06 01:44:26;;;;;;;14.07;5.93;;;;;;;;;;4977302;28;20161;-45
2023/03/06 01:46:54;;;;;;;12.73;5.45;;;;;;;;;;4967133;28;20396;-46
2023/03/06 01:49:24;;;;;;;12.02;5.63;;;;;;;;;;4980330;28;20077;-44
2023/03/06 01:51:53;;;;;;;13.20;5.20;;;;;;;;;;4996986;28;20107;-44
2023/03/06 01:54:23;;;;;;;12.07;5.45;;;;;;;;;;4960284;28;20214;-46
2023/03/06 01:56:53;;;;;;;11.73;5.07;;;;;;;;;;5002575;28;20132;-46
2023/03/06 01:59:21;;;;;;;14.82;5.90;;;;;;;;;;5001433;28;20140;-46
2023/03/06 02:01:49;;;;;;;12.73;5.05;;;;;;;;;;4991526;28;20573;-46
2023/03/06 02:04:17;;;;;;;12.88;4.90;;;;;;;;;;5006789;28;20073;-46
2023/03/06 02:06:45;;;;;;;13.35;5.03;;;;;;;;;;5000353;28;20413;-46
2023/03/06 02:09:13;;;;;;;12.40;5.80;;;;;;;;;;5002596;28;20120;-47
2023/03/06 02:11:42;;;;;;;13.48;5.85;;;;;;;;;;5007124;28;20059;-45
2023/03/06 02:14:13;;;;;;;10.68;4.72;;;;;;;;;;4980182;28;20495;-45
2023/03/06 02:16:41;;;;;;;12.43;5.55;;;;;;;;;;4971694;28;20030;-44
2023/03/06 02:19:14;;;;;;;15.57;6.07;;;;;;;;;;4995153;28;20041;-45
2023/03/06 02:21:42;;;;;;;11.17;5.40;;;;;;;;;;4965396;28;20042;-46
2023/03/06 02:24:18;;;;;;;19.30;5.15;;;;;;;;;;5001209;28;20045;-44
2023/03/06 02:26:50;;;;;;;13.90;5.78;;;;;;;;;;5003247;28;20068;-46
2023/03/06 02:29:21;;;;;;;15.35;5.85;;;;;;;;;;4996017;28;20030;-44
2023/03/06 02:31:49;;;;;;;12.38;4.95;;;;;;;;;;4957860;28;20124;-45
2023/03/06 02:34:35;;;;;;;11.27;5.00;;;;;;;;;;4994198;28;20744;-45
2023/03/06 02:37:04;;;;;;;10.48;4.63;;;;;;;;;;4984192;28;20136;-45
2023/03/06 02:39:36;;;;;;;11.80;4.82;;;;;;;;;;4996716;28;20068;-46
2023/03/06 02:42:07;;;;;;;12.55;5.18;;;;;;;;;;4989368;28;20344;-48
2023/03/06 02:44:35;;;;;;;12.32;4.55;;;;;;;;;;4988063;28;21028;-44
2023/03/06 02:47:03;;;;;;;13.63;5.03;;;;;;;;;;5003791;28;20095;-44
2023/03/06 02:49:31;;;;;;;12.27;5.35;;;;;;;;;;4991896;28;20732;-46
2023/03/06 02:51:58;;;;;;;12.35;5.30;;;;;;;;;;4993544;28;20041;-46
2023/03/06 02:54:26;;;;;;;13.13;5.25;;;;;;;;;;4996864;28;20072;-46
2023/03/06 02:56:54;;;;;;;12.63;5.35;;;;;;;;;;4993235;28;20042;-48
2023/03/06 02:59:23;;;;;;;11.10;4.73;;;;;;;;;;4993750;28;20030;-45
2023/03/06 03:01:51;;;;;;;13.98;5.22;;;;;;;;;;4984206;28;20049;-47
2023/03/06 03:04:18;;;;;;;14.15;4.93;;;;;;;;;;5003591;28;20121;-45
2023/03/06 03:06:46;;;;;;;12.50;5.60;;;;;;;;;;4988522;28;20049;-46
2023/03/06 03:09:13;;;;;;;17.67;5.80;;;;;;;;;;4950654;28;20042;-44
2023/03/06 03:11:41;;;;;;;14.27;6.10;;;;;;;;;;4979783;28;20436;-44
2023/03/06 03:14:09;;;;;;;12.38;5.45;;;;;;;;;;4978588;28;20582;-45
2023/03/06 03:16:38;;;;;;;15.32;6.70;;;;;;;;;;4997687;28;20129;-46
2023/03/06 03:19:08;;;;;;;14.30;6.22;;;;;;;;;;4988614;28;20511;-45
2023/03/06 03:21:35;;;;;;;14.48;5.38;;;;;;;;;;4995012;28;20549;-45
2023/03/06 03:24:03;;;;;;;13.80;5.87;;;;;;;;;;4985340;28;20073;-45
2023/03/06 03:26:30;;;;;;;14.55;5.28;;;;;;;;;;4996683;28;20576;-45
2023/03/06 03:28:58;;;;;;;12.35;4.88;;;;;;;;;;5001964;28;20133;-44
2023/03/06 03:31:25;;;;;;;14.70;5.90;;;;;;;;;;4991128;28;20065;-48
2023/03/06 03:33:55;;;;;;;14.40;5.80;;;;;;;;;;5015488;28;20049;-44
2023/03/06 03:36:23;;;;;;;12.70;5.40;;;;;;;;;;4977708;28;20442;-45
2023/03/06 03:38:53;;;;;;;15.75;5.95;;;;;;;;;;4993609;28;20047;-47
2023/03/06 03:41:21;;;;;;;15.38;5.85;;;;;;;;;;4977879;28;20040;-45
2023/03/06 03:43:49;;;;;;;15.63;6.07;;;;;;;;;;4986321;28;20136;-47
2023/03/06 03:46:16;;;;;;;13.07;5.78;;;;;;;;;;4965953;28;20276;-45
2023/03/06 03:48:44;;;;;;;14.03;5.80;;;;;;;;;;5000766;28;20061;-47
2023/03/06 03:51:15;;;;;;;14.68;5.97;;;;;;;;;;4989487;28;20060;-46
2023/03/06 03:53:43;;;;;;;17.40;6.47;;;;;;;;;;4997065;28;20045;-47
2023/03/06 03:56:17;;;;;;;14.75;6.15;;;;;;;;;;4997166;28;20038;-46
2023/03/06 03:58:44;;;;;;;16.52;6.50;;;;;;;;;;4984752;28;20073;-46
2023/03/06 04:01:15;;;;;;;16.03;6.57;;;;;;;;;;4987087;28;20095;-46
2023/03/06 04:03:43;;;;;;;15.20;6.53;;;;;;;;;;5002858;28;20213;-47
2023/03/06 04:06:16;;;;;;;16.42;6.68;;;;;;;;;;4991157;28;20124;-45
2023/03/06 04:08:44;;;;;;;12.77;6.00;;;;;;;;;;4992650;28;20638;-45
2023/03/06 04:11:12;;;;;;;14.88;6.18;;;;;;;;;;4989080;28;20060;-48
2023/03/06 04:13:40;;;;;;;14.77;6.60;;;;;;;;;;4997377;28;20072;-46
2023/03/06 04:16:07;;;;;;;17.90;7.18;;;;;;;;;;4991708;28;20038;-45
2023/03/06 04:18:35;;;;;;;18.70;7.97;;;;;;;;;;4984359;28;20047;-45
2023/03/06 04:21:02;;;;;;;17.50;7.20;;;;;;;;;;5008990;28;20037;-45
2023/03/06 04:23:32;;;;;;;16.30;7.80;;;;;;;;;;4987115;28;20075;-45
2023/03/06 04:25:59;;;;;;;18.27;7.60;;;;;;;;;;5002604;28;20049;-45
2023/03/06 04:28:27;;;;;;;16.25;6.65;;;;;;;;;;4992847;28;20077;-44
2023/03/06 04:30:54;;;;;;;17.10;7.93;;;;;;;;;;5007434;28;20165;-45
2023/03/06 04:33:22;;;;;;;21.45;7.60;;;;;;;;;;4987478;28;20072;-45
2023/03/06 04:35:50;;;;;;;19.98;7.95;;;;;;;;;;4998899;28;20043;-45
2023/03/06 04:38:20;;;;;;;19.13;8.37;;;;;;;;;;4999384;28;20487;-46
2023/03/06 04:40:49;;;;;;;17.83;7.93;;;;;;;;;;5003687;28;20098;-46
2023/03/06 04:43:17;;;;;;;20.80;8.98;;;;;;;;;;4985393;28;20037;-46
2023/03/06 04:45:45;;;;;;;20.20;7.82;;;;;;;;;;4991684;28;20061;-47
2023/03/06 04:48:16;;;;;;;16.75;7.90;;;;;;;;;;4997082;28;20967;-45
2023/03/06 04:50:46;;;;;;;20.20;8.93;;;;;;;;;;4997132;28;20560;-46
2023/03/06 04:53:15;;;;;;;19.10;8.15;;;;;;;;;;4987765;28;20931;-46
2023/03/06 04:55:43;;;;;;;22.95;8.30;;;;;;;;;;4999333;28;20049;-46
2023/03/06 04:58:15;;;;;;;20.35;8.20;;;;;;;;;;4990167;28;20424;-46
2023/03/06 05:00:45;;;;;;;18.60;8.20;;;;;;;;;;4988403;28;20056;-47
2023/03/06 05:03:14;;;;;;;23.87;9.00;;;;;;;;;;5012061;28;20041;-44
2023/03/06 05:05:41;;;;;;;19.75;8.10;;;;;;;;;;4989015;28;20128;-45
2023/03/06 05:08:10;;;;;;;18.75;8.30;;;;;;;;;;5001578;28;20080;-47
2023/03/06 05:10:38;;;;;;;20.58;8.50;;;;;;;;;;4991624;28;20037;-46
2023/03/06 05:13:05;;;;;;;18.88;8.15;;;;;;;;;;5008297;28;20041;-47
2023/03/06 05:15:35;;;;;;;19.80;7.57;;;;;;;;;;4992230;28;20474;-46
2023/03/06 05:18:02;;;;;;;20.35;8.00;;;;;;;;;;4999249;28;20571;-46
2023/03/06 05:20:30;;;;;;;17.98;7.93;;;;;;;;;;4997034;28;20037;-45
2023/03/06 05:22:58;;;;;;;20.13;7.90;;;;;;;;;;5003662;28;20042;-45
2023/03/06 05:25:25;;;;;;;20.05;8.65;;;;;;;;;;5004287;28;20126;-45
2023/03/06 05:27:53;;;;;;;21.40;8.40;;;;;;;;;;4998658;28;20808;-44
2023/03/06 05:30:22;;;;;;;18.10;8.13;;;;;;;;;;4996293;28;20125;-45
2023/03/06 05:32:51;;;;;;;19.50;7.55;;;;;;;;;;4989787;28;20112;-44
2023/03/06 05:35:20;;;;;;;18.52;7.75;;;;;;;;;;5007857;28;20133;-45
2023/03/06 05:37:47;;;;;;;17.73;7.88;;;;;;;;;;4994433;28;20136;-44
2023/03/06 05:40:16;;;;;;;17.97;7.27;;;;;;;;;;4997186;28;20053;-45
2023/03/06 05:42:47;;;;;;;24.45;8.10;;;;;;;;;;4977164;28;20049;-46
2023/03/06 05:45:15;;;;;;;17.38;7.88;;;;;;;;;;4990152;28;20136;-44
2023/03/06 05:47:43;;;;;;;20.52;7.50;;;;;;;;;;4996708;28;20041;-47
2023/03/06 05:50:12;;;;;;;20.00;8.35;;;;;;;;;;5000314;28;20120;-45
2023/03/06 05:52:40;;;;;;;15.53;7.07;;;;;;;;;;4990480;28;20049;-44
2023/03/06 05:55:10;;;;;;;18.85;7.85;;;;;;;;;;4989875;28;20041;-45
2023/03/06 05:57:38;;;;;;;17.90;8.05;;;;;;;;;;4995031;28;20048;-45
2023/03/06 06:00:06;;;;;;;15.48;6.57;;;;;;;;;;5006398;28;20072;-45
2023/03/06 06:02:34;;;;;;;20.73;7.97;;;;;;;;;;4995997;28;20495;-44
2023/03/06 06:05:02;;;;;;;18.50;6.60;;;;;;;;;;4979702;28;20141;-47
2023/03/06 06:07:31;;;;;;;17.27;7.90;;;;;;;;;;4992929;28;20045;-46
2023/03/06 06:09:59;;;;;;;17.38;7.40;;;;;;;;;;5008422;28;20103;-45
2023/03/06 06:12:31;;;;;;;15.48;7.43;;;;;;;;;;4999020;28;20048;-44
2023/03/06 06:14:58;;;;;;;17.45;7.90;;;;;;;;;;4980047;28;20033;-44
2023/03/06 06:17:26;;;;;;;16.80;7.80;;;;;;;;;;5002383;28;20045;-46
2023/03/06 06:19:53;;;;;;;18.83;7.45;;;;;;;;;;4979056;28;20069;-45
2023/03/06 06:22:21;;;;;;;17.17;6.65;;;;;;;;;;4991308;28;20116;-45
2023/03/06 06:24:50;;;;;;;18.77;7.57;;;;;;;;;;4991717;28;20065;-45
2023/03/06 06:27:18;;;;;;;16.25;8.07;;;;;;;;;;5003337;28;20142;-45
2023/03/06 06:29:45;;;;;;;15.20;6.90;;;;;;;;;;4989405;28;20910;-46
2023/03/06 06:32:13;;;;;;;17.02;7.25;;;;;;;;;;4983329;28;20037;-44
2023/03/06 06:34:41;;;;;;;17.13;6.93;;;;;;;;;;4985095;28;20880;-44
2023/03/06 06:37:12;;;;;;;16.60;6.88;;;;;;;;;;5002177;28;20288;-44
2023/03/06 06:39:40;;;;;;;15.95;7.28;;;;;;;;;;4985541;28;20045;-46
2023/03/06 06:42:09;;;;;;;17.97;7.20;;;;;;;;;;5003573;28;20053;-48
2023/03/06 06:44:58;;;;;;;16.60;7.00;;;;;;;;;;4997017;28;20038;-46
2023/03/06 06:47:29;;;;;;;16.83;7.40;;;;;;;;;;4996908;28;20053;-45
2023/03/06 06:49:57;;;;;;;17.20;7.38;;;;;;;;;;4995353;28;20045;-45
2023/03/06 06:52:28;;;;;;;18.85;7.70;;;;;;;;;;4974118;28;20425;-46
2023/03/06 06:54:57;;;;;;;20.77;8.03;;;;;;;;;;4992158;28;20049;-46
2023/03/06 06:57:28;;;;;;;20.15;7.43;;;;;;;;;;4985243;28;20132;-47
2023/03/06 06:59:56;;;;;;;16.52;6.75;;;;;;;;;;4994218;28;20073;-45
2023/03/06 07:02:24;;;;;;;18.60;6.47;;;;;;;;;;4990208;28;20038;-47
2023/03/06 07:04:52;;;;;;;14.43;6.82;;;;;;;;;;5000344;28;20107;-44
2023/03/06 07:07:31;;;;;;;15.93;6.87;;;;;;;;;;4989938;28;20511;-44
2023/03/06 07:09:59;;;;;;;18.80;7.40;;;;;;;;;;4978188;28;20044;-47
2023/03/06 07:12:31;;;;;;;19.05;7.40;;;;;;;;;;4989019;28;20128;-47
2023/03/06 07:14:59;;;;;;;18.90;6.78;;;;;;;;;;4993768;28;20521;-45
2023/03/06 07:17:27;;;;;;;18.60;7.00;;;;;;;;;;4981724;28;20256;-45
2023/03/06 07:19:55;;;;;;;18.80;7.50;;;;;;;;;;4991238;28;20515;-46
2023/03/06 07:22:22;;;;;;;18.67;6.85;;;;;;;;;;4988261;28;21115;-45
2023/03/06 07:24:50;;;;;;;19.00;7.50;;;;;;;;;;4995859;28;20056;-46
2023/03/06 07:27:17;;;;;;;19.05;6.88;;;;;;;;;;4996191;28;20091;-44
2023/03/06 07:29:47;;;;;;;17.35;7.55;;;;;;;;;;4999482;28;20065;-45
2023/03/06 07:32:14;;;;;;;19.00;7.53;;;;;;;;;;4998754;28;20071;-44
2023/03/06 07:34:43;;;;;;;18.38;7.88;;;;;;;;;;5001466;28;20033;-44
2023/03/06 07:37:11;;;;;;;16.35;7.15;;;;;;;;;;4985629;28;20744;-46
2023/03/06 07:39:39;;;;;;;16.27;7.32;;;;;;;;;;4996676;28;20414;-45
2023/03/06 07:42:06;;;;;;;19.08;6.53;;;;;;;;;;5004829;28;20057;-45
2023/03/06 07:44:35;;;;;;;17.93;6.83;;;;;;;;;;4993379;28;20445;-45
2023/03/06 07:47:05;;;;;;;17.27;7.03;;;;;;;;;;5000955;28;20049;-44
2023/03/06 07:49:33;;;;;;;16.55;7.15;;;;;;;;;;4988930;28;20041;-47
2023/03/06 07:52:01;;;;;;;17.88;6.68;;;;;;;;;;4979107;28;20471;-45
2023/03/06 07:54:31;;;;;;;15.82;6.97;;;;;;;;;;4929949;28;21214;-44
2023/03/06 07:56:58;;;;;;;19.63;7.57;;;;;;;;;;4973459;28;20069;-44
2023/03/06 07:59:26;;;;;;;15.82;6.15;;;;;;;;;;4941665;28;20101;-45
2023/03/06 08:01:54;;;;;;;16.60;6.18;;;;;;;;;;4965051;28;20113;-44
2023/03/06 08:04:24;;;;;;;16.95;6.40;;;;;;;;;;4941875;28;20043;-45
2023/03/06 08:06:58;;;;;;;17.50;6.20;;;;;;;;;;4946746;28;20046;-45
2023/03/06 08:09:26;;;;;;;15.43;5.90;;;;;;;;;;4965028;28;20280;-46
2023/03/06 08:11:54;;;;;;;17.42;6.55;;;;;;;;;;4936651;28;20151;-46
2023/03/06 08:14:22;;;;;;;17.05;6.75;;;;;;;;;;4984018;28;20070;-47
2023/03/06 08:16:50;;;;;;;21.20;7.68;;;;;;;;;;4948105;28;20088;-46
2023/03/06 08:19:18;;;;;;;17.73;7.47;;;;;;;;;;4948546;28;20038;-46
2023/03/06 08:21:47;;;;;;;19.23;7.47;;;;;;;;;;4959577;28;20114;-48
2023/03/06 08:24:15;;;;;;;19.30;7.90;;;;;;;;;;4947240;28;20777;-49
2023/03/06 08:26:43;;;;;;;19.45;8.10;;;;;;;;;;4970973;28;20057;-45
2023/03/06 08:29:14;;;;;;;21.92;7.65;;;;;;;;;;4942876;28;20126;-46
2023/03/06 08:31:42;;;;;;;18.67;7.22;;;;;;;;;;4962227;28;20046;-45
2023/03/06 08:34:11;;;;;;;17.10;6.80;;;;;;;;;;4937750;28;20129;-48
2023/03/06 08:36:39;;;;;;;18.20;6.78;;;;;;;;;;4967672;28;20571;-46
2023/03/06 08:39:08;;;;;;;18.90;7.70;;;;;;;;;;4934971;28;20113;-46
2023/03/06 08:41:36;;;;;;;21.17;8.70;;;;;;;;;;4942204;28;20153;-46
2023/03/06 08:44:04;;;;;;;16.90;7.80;;;;;;;;;;4955072;28;20567;-45
2023/03/06 08:46:32;;;;;;;20.60;7.37;;;;;;;;;;4954307;28;20125;-46
2023/03/06 08:49:00;;;;;;;18.95;6.90;;;;;;;;;;4967741;28;20034;-46
2023/03/06 08:51:29;;;;;;;18.90;7.68;;;;;;;;;;4964228;28;20069;-45
2023/03/06 08:53:57;;;;;;;17.88;6.88;;;;;;;;;;4985100;28;20070;-45
2023/03/06 08:56:28;;;;;;;15.50;6.47;;;;;;;;;;5004521;28;20451;-44
2023/03/06 08:58:56;;;;;;;15.73;5.83;;;;;;;;;;4994759;28;20124;-44
2023/03/06 09:01:25;;;;;;;14.93;5.47;;;;;;;;;;5001478;28;20065;-44
2023/03/06 09:03:54;;;;;;;15.35;5.80;;;;;;;;;;4966281;28;20265;-44
2023/03/06 09:06:21;;;;;;;18.58;5.15;;;;;;;;;;4980449;28;20087;-45
2023/03/06 09:08:50;;;;;;;15.52;5.75;;;;;;;;;;4998938;28;20357;-45
2023/03/06 09:11:18;;;;;;;15.93;5.23;;;;;;;;;;4983145;28;20437;-46
2023/03/06 09:13:47;;;;;;;18.38;6.18;;;;;;;;;;4302598;28;10000699;-48
2023/03/06 09:16:15;;;;;;;14.93;5.60;;;;;;;;;;4992803;28;20041;-47
2023/03/06 09:18:43;;;;;;;15.40;6.18;;;;;;;;;;4998478;28;20049;-45
2023/03/06 09:21:11;;;;;;;16.45;6.43;;;;;;;;;;4989845;28;20045;-44
2023/03/06 09:23:43;;;;;;;15.10;5.88;;;;;;;;;;4999652;28;20060;-46
2023/03/06 09:26:11;;;;;;;13.55;5.90;;;;;;;;;;4999654;28;20068;-45
2023/03/06 09:28:39;;;;;;;10.33;4.27;;;;;;;;;;4641570;28;10000453;-45
2023/03/06 09:31:09;;;;;;;14.57;4.95;;;;;;;;;;4995269;28;20045;-45
2023/03/06 09:33:36;;;;;;;10.75;4.55;;;;;;;;;;4975700;28;20048;-45
2023/03/06 09:36:06;;;;;;;12.10;4.80;;;;;;;;;;4989904;28;20056;-46
2023/03/06 09:38:34;;;;;;;10.15;3.72;;;;;;;;;;4984964;28;20128;-47
2023/03/06 09:41:07;;;;;;;11.52;5.07;;;;;;;;;;4976697;28;20052;-45
2023/03/06 09:43:39;;;;;;;10.93;4.22;;;;;;;;;;4980022;28;20530;-47
2023/03/06 09:46:07;;;;;;;12.10;4.28;;;;;;;;;;4982147;28;20068;-46
2023/03/06 09:48:40;;;;;;;10.80;3.97;;;;;;;;;;4965244;28;20048;-46
2023/03/06 09:51:10;;;;;;;16.42;3.60;;;;;;;;;;4982930;28;20040;-46
2023/03/06 09:53:48;;;;;;;8.82;3.08;;;;;;;;;;4961116;28;20066;-46
2023/03/06 09:56:17;;;;;;;10.95;3.88;;;;;;;;;;4970889;28;20038;-47
2023/03/06 09:58:48;;;;;;;10.43;4.20;;;;;;;;;;4968749;28;20049;-45
2023/03/06 10:01:19;;;;;;;13.73;4.23;;;;;;;;;;4956817;28;20050;-46
2023/03/06 10:03:50;;;;;;;11.23;3.67;;;;;;;;;;4957287;28;20052;-45
2023/03/06 10:06:20;;;;;;;10.30;3.70;;;;;;;;;;4962637;28;20129;-52
2023/03/06 10:08:50;;;;;;;8.55;3.30;;;;;;;;;;4938720;28;21089;-46
2023/03/06 10:11:22;;;;;;;10.02;3.60;;;;;;;;;;4960876;28;20044;-45
2023/03/06 10:13:51;;;;;;;8.33;2.93;;;;;;;;;;4950070;28;20136;-45
2023/03/06 10:16:22;;;;;;;11.32;3.45;;;;;;;;;;4962851;28;20546;-45
2023/03/06 10:18:53;;;;;;;10.90;3.58;;;;;;;;;;4950026;28;20610;-46
2023/03/06 10:21:43;;;;;;;7.82;3.20;;;;;;;;;;4963698;28;20416;-45
2023/03/06 10:24:23;;;;;;;7.68;3.20;;;;;;;;;;4951248;28;20116;-46
2023/03/06 10:26:56;;;;;;;8.03;2.73;;;;;;;;;;4963474;28;20149;-46
2023/03/06 10:29:33;;;;;;;7.70;3.22;;;;;;;;;;4976658;28;20128;-46
2023/03/06 10:32:09;;;;;;;9.20;3.45;;;;;;;;;;4951519;28;20221;-45
2023/03/06 10:34:39;;;;;;;7.70;2.78;;;;;;;;;;4958489;28;20330;-46
2023/03/06 10:37:15;;;;;;;8.70;2.67;;;;;;;;;;4964208;28;20045;-45
2023/03/06 10:39:42;;;;;;;9.13;3.17;;;;;;;;;;4959082;28;20888;-45
2023/03/06 10:42:10;;;;;;;8.40;2.58;;;;;;;;;;4954989;28;20559;-45
2023/03/06 10:44:37;;;;;;;10.50;3.00;;;;;;;;;;4958421;28;20074;-46
2023/03/06 10:47:20;;;;;;;6.50;2.63;;;;;;;;;;4952195;28;20567;-48
2023/03/06 10:49:56;;;;;;;7.43;3.08;;;;;;;;;;4950989;28;20048;-46
2023/03/06 10:52:28;;;;;;;8.20;3.33;;;;;;;;;;4967131;28;20057;-47
2023/03/06 10:55:13;;;;;;;10.88;3.92;;;;;;;;;;4987653;28;20438;-46
2023/03/06 10:57:41;;;;;;;11.98;2.92;;;;;;;;;;4982269;28;20037;-48
2023/03/06 11:00:23;;;;;;;9.63;4.50;;;;;;;;;;4969744;28;20222;-47
2023/03/06 11:03:03;;;;;;;8.63;3.22;;;;;;;;;;4980601;28;20045;-45
2023/03/06 11:05:32;;;;;;;9.73;4.97;;;;;;;;;;4976243;28;20602;-46
2023/03/06 11:08:00;;;;;;;7.18;2.60;;;;;;;;;;4966213;28;20053;-47
2023/03/06 11:10:30;;;;;;;6.85;2.40;;;;;;;;;;4963917;28;21398;-46
2023/03/06 11:12:58;;;;;;;7.53;3.70;;;;;;;;;;4977691;28;20033;-44
2023/03/06 11:15:29;;;;;;;7.47;3.65;;;;;;;;;;4979766;28;20511;-46
2023/03/06 11:17:59;;;;;;;7.30;3.07;;;;;;;;;;4994086;28;20642;-46
2023/03/06 11:20:28;;;;;;;8.02;2.67;;;;;;;;;;4969118;28;20038;-45
2023/03/06 11:23:14;;;;;;;8.10;2.75;;;;;;;;;;4973087;28;20053;-45
2023/03/06 11:25:47;;;;;;;5.53;1.55;;;;;;;;;;4979957;28;20045;-45
2023/03/06 11:28:20;;;;;;;7.35;2.78;;;;;;;;;;4694668;28;10000862;-44
2023/03/06 11:30:49;;;;;;;4.85;1.63;;;;;;;;;;4969415;28;20298;-44
2023/03/06 11:33:23;;;;;;;6.23;2.10;;;;;;;;;;4976989;28;20044;-45
2023/03/06 11:35:54;;;;;;;4.88;1.23;;;;;;;;;;4961619;28;20133;-45
2023/03/06 11:38:27;;;;;;;9.85;1.40;;;;;;;;;;4972921;28;20037;-45
2023/03/06 11:40:57;;;;;;;7.65;1.02;;;;;;;;;;4974248;28;20674;-45
2023/03/06 11:43:30;;;;;;;5.45;1.63;;;;;;;;;;4982991;28;20148;-45
2023/03/06 11:46:00;;;;;;;5.77;1.23;;;;;;;;;;4966878;28;20248;-45
2023/03/06 11:48:30;;;;;;;3.95;0.93;;;;;;;;;;4988606;28;20779;-44
2023/03/06 11:51:02;;;;;;;4.20;0.60;;;;;;;;;;4972309;28;20118;-44
2023/03/06 11:53:35;;;;;;;3.88;1.08;;;;;;;;;;4983076;28;20061;-46
2023/03/06 11:56:09;;;;;;;6.57;1.00;;;;;;;;;;4969291;28;20034;-45
2023/03/06 11:58:50;;;;;;;5.60;0.90;;;;;;;;;;4981058;28;20049;-47
2023/03/06 12:01:22;;;;;;;4.13;0.68;;;;;;;;;;4982269;28;20029;-46
2023/03/06 12:04:01;;;;;;;6.05;0.90;;;;;;;;;;4972736;28;20574;-45
2023/03/06 12:06:34;;;;;;;4.18;0.75;;;;;;;;;;4971808;28;20041;-45
2023/03/06 12:09:14;;;;;;;4.13;0.80;;;;;;;;;;4966592;28;20042;-46
2023/03/06 12:11:46;;;;;;;3.17;0.50;;;;;;;;;;4973958;28;20064;-46
2023/03/06 12:14:20;;;;;;;3.42;0.60;;;;;;;;;;4991785;28;20092;-45
2023/03/06 12:17:02;;;;;;;4.88;0.47;;;;;;;;;;4993155;28;20037;-45
2023/03/06 12:19:36;;;;;;;2.63;0.40;;;;;;;;;;4985827;28;20042;-45
2023/03/06 12:22:12;;;;;;;2.83;0.65;;;;;;;;;;4985962;28;20460;-45
2023/03/06 12:24:53;;;;;;;4.30;0.80;;;;;;;;;;4993185;28;20125;-45
2023/03/06 12:27:28;;;;;;;4.25;0.70;;;;;;;;;;4993703;28;20554;-45
2023/03/06 12:30:02;;;;;;;3.15;0.63;;;;;;;;;;5008724;28;20042;-47
2023/03/06 12:32:37;;;;;;;3.22;0.68;;;;;;;;;;4985433;28;20554;-47
2023/03/06 12:35:17;;;;;;;6.38;0.90;;;;;;;;;;4969325;28;20672;-45
2023/03/06 12:37:52;;;;;;;5.93;1.07;;;;;;;;;;4982923;28;20038;-46
2023/03/06 12:40:35;;;;;;;3.65;0.98;;;;;;;;;;4981641;28;20095;-45
2023/03/06 12:43:23;;;;;;;5.10;0.65;;;;;;;;;;4963916;28;20743;-47
2023/03/06 12:45:55;;;;;;;2.42;0.40;;;;;;;;;;4951922;28;20061;-46
2023/03/06 12:48:25;;;;;;;2.58;0.30;;;;;;;;;;4977663;28;20140;-45
2023/03/06 12:50:53;;;;;;;2.97;0.70;;;;;;;;;;4266650;28;10000028;-45
2023/03/06 12:53:23;;;;;;;2.40;0.50;;;;;;;;;;4977345;28;20156;-49
2023/03/06 12:55:52;;;;;;;3.88;0.52;;;;;;;;;;4961548;28;20760;-45
2023/03/06 12:58:33;;;;;;;3.30;0.52;;;;;;;;;;4981711;28;20159;-44
2023/03/06 13:01:03;;;;;;;2.95;0.55;;;;;;;;;;4970471;28;20057;-43
2023/03/06 13:03:40;;;;;;;4.43;0.53;;;;;;;;;;4980995;28;20095;-45
2023/03/06 13:06:26;;;;;;;3.20;0.70;;;;;;;;;;4975509;28;20778;-44
2023/03/06 13:09:12;;;;;;;4.85;0.80;;;;;;;;;;4967432;28;20053;-43
2023/03/06 13:11:54;;;;;;;5.05;1.05;;;;;;;;;;4981453;28;20116;-44
2023/03/06 13:14:25;;;;;;;6.20;0.82;;;;;;;;;;4633829;28;10000902;-43
2023/03/06 13:16:53;;;;;;;2.77;0.50;;;;;;;;;;4972527;28;20160;-43
2023/03/06 13:19:22;;;;;;;3.47;0.60;;;;;;;;;;4958173;28;20041;-44
2023/03/06 13:22:08;;;;;;;2.95;0.70;;;;;;;;;;4979304;28;20476;-47
2023/03/06 13:24:36;;;;;;;4.60;1.45;;;;;;;;;;4975598;28;20309;-46
2023/03/06 13:27:10;;;;;;;5.57;1.33;;;;;;;;;;4977738;28;20077;-45
2023/03/06 13:29:58;;;;;;;7.77;2.00;;;;;;;;;;4974490;28;20186;-44
2023/03/06 13:32:33;;;;;;;5.22;1.67;;;;;;;;;;4977222;28;20083;-44
2023/03/06 13:35:01;;;;;;;6.43;1.33;;;;;;;;;;4978788;28;20099;-45
2023/03/06 13:37:47;;;;;;;5.40;1.15;;;;;;;;;;4977863;28;20521;-45
2023/03/06 13:40:33;;;;;;;3.60;1.00;;;;;;;;;;4980282;28;20524;-44
2023/03/06 13:43:22;;;;;;;3.13;0.70;;;;;;;;;;4968589;28;21164;-44
2023/03/06 13:45:50;;;;;;;3.67;0.80;;;;;;;;;;4974123;28;20057;-46
2023/03/06 13:48:30;;;;;;;4.65;0.85;;;;;;;;;;4980417;28;20064;-46
2023/03/06 13:51:15;;;;;;;4.10;1.27;;;;;;;;;;4976551;28;20042;-46
2023/03/06 13:54:00;;;;;;;5.22;1.33;;;;;;;;;;4987351;28;20180;-46
2023/03/06 13:56:52;;;;;;;4.50;1.50;;;;;;;;;;4968305;28;20593;-47
2023/03/06 13:59:35;;;;;;;9.32;2.20;;;;;;;;;;4974262;28;20679;-47
2023/03/06 14:02:09;;;;;;;4.72;1.60;;;;;;;;;;4976883;28;20077;-45
2023/03/06 14:04:43;;;;;;;5.88;1.75;;;;;;;;;;4978726;28;20124;-45
2023/03/06 14:07:19;;;;;;;7.13;1.90;;;;;;;;;;4977631;28;20947;-44
2023/03/06 14:09:47;;;;;;;5.37;1.63;;;;;;;;;;4977844;28;20184;-46
2023/03/06 14:12:18;;;;;;;7.13;1.70;;;;;;;;;;4986214;28;20624;-44
2023/03/06 14:14:48;;;;;;;4.93;1.40;;;;;;;;;;4986012;28;20053;-46
2023/03/06 14:17:25;;;;;;;7.95;1.52;;;;;;;;;;4978426;28;20099;-45
2023/03/06 14:19:52;;;;;;;5.22;1.48;;;;;;;;;;4983161;28;20134;-45
2023/03/06 14:22:22;;;;;;;5.43;1.23;;;;;;;;;;4986211;28;20729;-46
2023/03/06 14:24:55;;;;;;;6.10;0.85;;;;;;;;;;4983947;28;20030;-46
2023/03/06 14:27:37;;;;;;;4.32;1.00;;;;;;;;;;4975009;28;20045;-46
2023/03/06 14:30:06;;;;;;;4.55;1.10;;;;;;;;;;4986264;28;20443;-46
2023/03/06 14:32:37;;;;;;;4.30;1.10;;;;;;;;;;4972544;28;20064;-45
2023/03/06 14:35:05;;;;;;;4.27;0.80;;;;;;;;;;4978221;28;20049;-45
2023/03/06 14:37:35;;;;;;;4.35;1.17;;;;;;;;;;4972813;28;20859;-47
2023/03/06 14:40:08;;;;;;;5.20;1.40;;;;;;;;;;4980311;28;20045;-45
2023/03/06 14:42:42;;;;;;;5.90;1.67;;;;;;;;;;4986312;28;20116;-45
2023/03/06 14:45:15;;;;;;;4.78;1.50;;;;;;;;;;4976041;28;20046;-45
2023/03/06 14:47:49;;;;;;;7.03;1.90;;;;;;;;;;4978048;28;20096;-44
2023/03/06 14:50:22;;;;;;;4.80;1.55;;;;;;;;;;4961707;28;20041;-44
2023/03/06 14:52:50;;;;;;;7.35;2.00;;;;;;;;;;4981674;28;20396;-44